sensor_id;sensor_type;location;lat;lon;timestamp;P1;durP1;ratioP1;P2;durP2;ratioP2
69565;SDS011;56777;55.930;37.524;2024-01-30T00:02:14;23.90;;;10.00;;
69565;SDS011;56777;55.930;37.524;2024-01-30T00:04:40;23.52;;;10.50;;
69565;SDS011;56777;55.930;37.524;2024-01-30T00:07:06;25.15;;;10.15;;
69565;SDS011;56777;55.930;37.524;2024-01-30T00:09:31;22.02;;;9.50;;
69565;SDS011;56777;55.930;37.524;2024-01-30T00:11:57;24.77;;;9.63;;
69565;SDS011;56777;55.930;37.524;2024-01-30T00:14:22;23.13;;;9.63;;
69565;SDS011;56777;55.930;37.524;2024-01-30T00:16:48;26.08;;;9.75;;
69565;SDS011;56777;55.930;37.524;2024-01-30T00:19:13;23.08;;;9.75;;
69565;SDS011;56777;55.930;37.524;2024-01-30T00:21:39;21.80;;;8.70;;
69565;SDS011;56777;55.930;37.524;2024-01-30T00:24:05;26.00;;;8.35;;
69565;SDS011;56777;55.930;37.524;2024-01-30T00:26:30;18.33;;;7.88;;
69565;SDS011;56777;55.930;37.524;2024-01-30T00:28:56;22.05;;;8.20;;
69565;SDS011;56777;55.930;37.524;2024-01-30T00:31:21;18.17;;;7.22;;
69565;SDS011;56777;55.930;37.524;2024-01-30T00:33:47;19.75;;;8.27;;
69565;SDS011;56777;55.930;37.524;2024-01-30T00:36:12;20.25;;;7.53;;
69565;SDS011;56777;55.930;37.524;2024-01-30T00:38:38;24.73;;;8.00;;
69565;SDS011;56777;55.930;37.524;2024-01-30T00:41:04;28.17;;;8.07;;
69565;SDS011;56777;55.930;37.524;2024-01-30T00:43:30;24.67;;;8.43;;
69565;SDS011;56777;55.930;37.524;2024-01-30T00:45:56;20.75;;;6.90;;
69565;SDS011;56777;55.930;37.524;2024-01-30T00:48:23;23.27;;;7.60;;
69565;SDS011;56777;55.930;37.524;2024-01-30T00:50:48;26.20;;;7.82;;
69565;SDS011;56777;55.930;37.524;2024-01-30T00:53:14;23.40;;;7.75;;
69565;SDS011;56777;55.930;37.524;2024-01-30T00:55:39;25.98;;;9.20;;
69565;SDS011;56777;55.930;37.524;2024-01-30T00:58:05;27.95;;;8.57;;
69565;SDS011;56777;55.930;37.524;2024-01-30T01:00:31;26.48;;;8.48;;
69565;SDS011;56777;55.930;37.524;2024-01-30T01:02:58;23.50;;;8.35;;
69565;SDS011;56777;55.930;37.524;2024-01-30T01:05:24;24.60;;;8.13;;
69565;SDS011;56777;55.930;37.524;2024-01-30T01:07:50;23.10;;;8.48;;
69565;SDS011;56777;55.930;37.524;2024-01-30T01:10:18;25.45;;;8.30;;
69565;SDS011;56777;55.930;37.524;2024-01-30T01:12:44;30.42;;;8.88;;
69565;SDS011;56777;55.930;37.524;2024-01-30T01:15:11;30.00;;;9.70;;
69565;SDS011;56777;55.930;37.524;2024-01-30T01:17:37;29.10;;;9.73;;
69565;SDS011;56777;55.930;37.524;2024-01-30T01:20:04;25.90;;;8.63;;
69565;SDS011;56777;55.930;37.524;2024-01-30T01:22:31;29.17;;;9.07;;
69565;SDS011;56777;55.930;37.524;2024-01-30T01:24:57;30.58;;;9.27;;
69565;SDS011;56777;55.930;37.524;2024-01-30T01:27:24;27.00;;;8.85;;
69565;SDS011;56777;55.930;37.524;2024-01-30T01:29:50;28.77;;;9.55;;
69565;SDS011;56777;55.930;37.524;2024-01-30T01:32:15;28.50;;;8.93;;
69565;SDS011;56777;55.930;37.524;2024-01-30T01:34:41;30.02;;;9.35;;
69565;SDS011;56777;55.930;37.524;2024-01-30T01:37:06;25.67;;;8.98;;
69565;SDS011;56777;55.930;37.524;2024-01-30T01:39:32;28.58;;;9.10;;
69565;SDS011;56777;55.930;37.524;2024-01-30T01:41:58;28.02;;;9.95;;
69565;SDS011;56777;55.930;37.524;2024-01-30T01:44:23;29.50;;;9.50;;
69565;SDS011;56777;55.930;37.524;2024-01-30T01:46:49;28.92;;;10.15;;
69565;SDS011;56777;55.930;37.524;2024-01-30T01:49:16;27.88;;;9.23;;
69565;SDS011;56777;55.930;37.524;2024-01-30T01:51:42;30.80;;;10.07;;
69565;SDS011;56777;55.930;37.524;2024-01-30T01:54:09;27.92;;;9.15;;
69565;SDS011;56777;55.930;37.524;2024-01-30T01:56:36;23.23;;;8.45;;
69565;SDS011;56777;55.930;37.524;2024-01-30T01:59:06;26.80;;;8.85;;
69565;SDS011;56777;55.930;37.524;2024-01-30T02:03:59;25.38;;;9.75;;
69565;SDS011;56777;55.930;37.524;2024-01-30T02:06:25;25.77;;;7.88;;
69565;SDS011;56777;55.930;37.524;2024-01-30T02:08:51;35.63;;;9.70;;
69565;SDS011;56777;55.930;37.524;2024-01-30T02:11:17;32.85;;;9.77;;
69565;SDS011;56777;55.930;37.524;2024-01-30T02:13:43;31.20;;;9.77;;
69565;SDS011;56777;55.930;37.524;2024-01-30T02:16:09;27.13;;;9.48;;
69565;SDS011;56777;55.930;37.524;2024-01-30T02:18:35;26.58;;;9.18;;
69565;SDS011;56777;55.930;37.524;2024-01-30T02:21:06;28.30;;;9.35;;
69565;SDS011;56777;55.930;37.524;2024-01-30T02:23:32;28.10;;;9.45;;
69565;SDS011;56777;55.930;37.524;2024-01-30T02:25:59;28.63;;;9.30;;
69565;SDS011;56777;55.930;37.524;2024-01-30T02:28:26;25.50;;;8.85;;
69565;SDS011;56777;55.930;37.524;2024-01-30T02:30:55;31.50;;;9.55;;
69565;SDS011;56777;55.930;37.524;2024-01-30T02:33:21;29.45;;;11.20;;
69565;SDS011;56777;55.930;37.524;2024-01-30T02:35:47;29.58;;;9.77;;
69565;SDS011;56777;55.930;37.524;2024-01-30T02:38:13;30.00;;;9.50;;
69565;SDS011;56777;55.930;37.524;2024-01-30T02:40:40;35.75;;;9.88;;
69565;SDS011;56777;55.930;37.524;2024-01-30T02:43:05;32.13;;;10.27;;
69565;SDS011;56777;55.930;37.524;2024-01-30T02:45:31;32.33;;;9.52;;
69565;SDS011;56777;55.930;37.524;2024-01-30T02:47:57;34.15;;;12.38;;
69565;SDS011;56777;55.930;37.524;2024-01-30T02:50:22;35.65;;;11.32;;
69565;SDS011;56777;55.930;37.524;2024-01-30T02:52:48;30.27;;;11.32;;
69565;SDS011;56777;55.930;37.524;2024-01-30T02:55:13;38.85;;;12.07;;
69565;SDS011;56777;55.930;37.524;2024-01-30T02:57:39;41.85;;;12.75;;
69565;SDS011;56777;55.930;37.524;2024-01-30T03:00:04;35.97;;;11.70;;
69565;SDS011;56777;55.930;37.524;2024-01-30T03:02:34;37.85;;;11.75;;
69565;SDS011;56777;55.930;37.524;2024-01-30T03:05:00;42.67;;;12.90;;
69565;SDS011;56777;55.930;37.524;2024-01-30T03:07:25;43.53;;;13.75;;
69565;SDS011;56777;55.930;37.524;2024-01-30T03:09:51;56.78;;;14.25;;
69565;SDS011;56777;55.930;37.524;2024-01-30T03:12:17;46.95;;;13.00;;
69565;SDS011;56777;55.930;37.524;2024-01-30T03:14:42;46.75;;;12.25;;
69565;SDS011;56777;55.930;37.524;2024-01-30T03:17:08;52.28;;;14.63;;
69565;SDS011;56777;55.930;37.524;2024-01-30T03:19:33;43.78;;;12.82;;
69565;SDS011;56777;55.930;37.524;2024-01-30T03:21:59;39.63;;;12.43;;
69565;SDS011;56777;55.930;37.524;2024-01-30T03:24:25;42.88;;;13.52;;
69565;SDS011;56777;55.930;37.524;2024-01-30T03:26:51;35.60;;;11.05;;
69565;SDS011;56777;55.930;37.524;2024-01-30T03:29:16;40.40;;;11.63;;
69565;SDS011;56777;55.930;37.524;2024-01-30T03:31:42;40.17;;;12.52;;
69565;SDS011;56777;55.930;37.524;2024-01-30T03:34:07;32.70;;;11.95;;
69565;SDS011;56777;55.930;37.524;2024-01-30T03:36:33;48.30;;;12.15;;
69565;SDS011;56777;55.930;37.524;2024-01-30T03:38:59;36.75;;;10.77;;
69565;SDS011;56777;55.930;37.524;2024-01-30T03:41:25;39.10;;;12.40;;
69565;SDS011;56777;55.930;37.524;2024-01-30T03:43:51;40.83;;;12.48;;
69565;SDS011;56777;55.930;37.524;2024-01-30T03:46:16;47.63;;;12.20;;
69565;SDS011;56777;55.930;37.524;2024-01-30T03:48:42;34.92;;;11.30;;
69565;SDS011;56777;55.930;37.524;2024-01-30T03:51:08;38.30;;;11.48;;
69565;SDS011;56777;55.930;37.524;2024-01-30T03:53:34;37.17;;;11.35;;
69565;SDS011;56777;55.930;37.524;2024-01-30T03:56:00;39.95;;;11.82;;
69565;SDS011;56777;55.930;37.524;2024-01-30T03:58:26;37.42;;;12.23;;
69565;SDS011;56777;55.930;37.524;2024-01-30T04:00:51;41.28;;;11.63;;
69565;SDS011;56777;55.930;37.524;2024-01-30T04:03:17;34.90;;;12.65;;
69565;SDS011;56777;55.930;37.524;2024-01-30T04:05:42;37.33;;;12.77;;
69565;SDS011;56777;55.930;37.524;2024-01-30T04:08:08;34.10;;;11.65;;
69565;SDS011;56777;55.930;37.524;2024-01-30T04:10:34;36.80;;;11.88;;
69565;SDS011;56777;55.930;37.524;2024-01-30T04:13:00;35.13;;;12.45;;
69565;SDS011;56777;55.930;37.524;2024-01-30T04:15:26;35.45;;;11.52;;
69565;SDS011;56777;55.930;37.524;2024-01-30T04:17:52;36.80;;;12.65;;
69565;SDS011;56777;55.930;37.524;2024-01-30T04:20:20;38.60;;;12.75;;
69565;SDS011;56777;55.930;37.524;2024-01-30T04:22:45;35.47;;;12.93;;
69565;SDS011;56777;55.930;37.524;2024-01-30T04:25:12;37.05;;;12.85;;
69565;SDS011;56777;55.930;37.524;2024-01-30T04:27:38;38.60;;;12.32;;
69565;SDS011;56777;55.930;37.524;2024-01-30T04:30:04;38.53;;;13.35;;
69565;SDS011;56777;55.930;37.524;2024-01-30T04:32:30;35.97;;;12.07;;
69565;SDS011;56777;55.930;37.524;2024-01-30T04:34:56;34.28;;;12.52;;
69565;SDS011;56777;55.930;37.524;2024-01-30T04:37:22;36.17;;;12.20;;
69565;SDS011;56777;55.930;37.524;2024-01-30T04:39:48;39.60;;;11.73;;
69565;SDS011;56777;55.930;37.524;2024-01-30T04:42:14;38.17;;;13.02;;
69565;SDS011;56777;55.930;37.524;2024-01-30T04:44:40;40.00;;;13.68;;
69565;SDS011;56777;55.930;37.524;2024-01-30T04:47:05;35.65;;;11.48;;
69565;SDS011;56777;55.930;37.524;2024-01-30T04:49:34;40.05;;;13.63;;
69565;SDS011;56777;55.930;37.524;2024-01-30T04:52:00;38.65;;;12.43;;
69565;SDS011;56777;55.930;37.524;2024-01-30T04:54:26;36.97;;;11.63;;
69565;SDS011;56777;55.930;37.524;2024-01-30T04:56:51;39.55;;;13.13;;
69565;SDS011;56777;55.930;37.524;2024-01-30T04:59:17;39.13;;;12.82;;
69565;SDS011;56777;55.930;37.524;2024-01-30T05:01:43;32.03;;;11.80;;
69565;SDS011;56777;55.930;37.524;2024-01-30T05:04:08;35.95;;;11.68;;
69565;SDS011;56777;55.930;37.524;2024-01-30T05:06:34;40.65;;;14.13;;
69565;SDS011;56777;55.930;37.524;2024-01-30T05:09:00;39.50;;;12.20;;
69565;SDS011;56777;55.930;37.524;2024-01-30T05:11:38;37.75;;;12.85;;
69565;SDS011;56777;55.930;37.524;2024-01-30T05:14:05;37.88;;;13.10;;
69565;SDS011;56777;55.930;37.524;2024-01-30T05:16:31;40.63;;;13.15;;
69565;SDS011;56777;55.930;37.524;2024-01-30T05:18:57;36.95;;;12.45;;
69565;SDS011;56777;55.930;37.524;2024-01-30T05:21:23;38.90;;;13.00;;
69565;SDS011;56777;55.930;37.524;2024-01-30T05:23:49;37.40;;;13.10;;
69565;SDS011;56777;55.930;37.524;2024-01-30T05:26:14;40.13;;;12.85;;
69565;SDS011;56777;55.930;37.524;2024-01-30T05:28:40;40.47;;;13.90;;
69565;SDS011;56777;55.930;37.524;2024-01-30T05:31:06;36.92;;;12.52;;
69565;SDS011;56777;55.930;37.524;2024-01-30T05:33:31;40.25;;;12.85;;
69565;SDS011;56777;55.930;37.524;2024-01-30T05:35:57;34.45;;;11.52;;
69565;SDS011;56777;55.930;37.524;2024-01-30T05:38:22;34.78;;;12.25;;
69565;SDS011;56777;55.930;37.524;2024-01-30T05:40:48;40.10;;;13.68;;
69565;SDS011;56777;55.930;37.524;2024-01-30T05:43:13;35.65;;;12.98;;
69565;SDS011;56777;55.930;37.524;2024-01-30T05:45:39;39.38;;;12.75;;
69565;SDS011;56777;55.930;37.524;2024-01-30T05:48:05;37.92;;;11.68;;
69565;SDS011;56777;55.930;37.524;2024-01-30T05:50:31;36.08;;;11.65;;
69565;SDS011;56777;55.930;37.524;2024-01-30T05:52:56;34.13;;;12.07;;
69565;SDS011;56777;55.930;37.524;2024-01-30T05:55:22;37.22;;;12.60;;
69565;SDS011;56777;55.930;37.524;2024-01-30T05:57:48;39.92;;;12.57;;
69565;SDS011;56777;55.930;37.524;2024-01-30T06:00:13;33.30;;;11.45;;
69565;SDS011;56777;55.930;37.524;2024-01-30T06:02:39;37.63;;;12.02;;
69565;SDS011;56777;55.930;37.524;2024-01-30T06:05:05;38.75;;;12.40;;
69565;SDS011;56777;55.930;37.524;2024-01-30T06:07:31;39.97;;;13.30;;
69565;SDS011;56777;55.930;37.524;2024-01-30T06:09:56;37.75;;;12.75;;
69565;SDS011;56777;55.930;37.524;2024-01-30T06:12:22;36.38;;;11.75;;
69565;SDS011;56777;55.930;37.524;2024-01-30T06:14:47;42.60;;;14.90;;
69565;SDS011;56777;55.930;37.524;2024-01-30T06:17:13;35.60;;;12.77;;
69565;SDS011;56777;55.930;37.524;2024-01-30T06:19:39;39.03;;;13.18;;
69565;SDS011;56777;55.930;37.524;2024-01-30T06:22:04;34.67;;;12.43;;
69565;SDS011;56777;55.930;37.524;2024-01-30T06:24:30;35.22;;;12.18;;
69565;SDS011;56777;55.930;37.524;2024-01-30T06:26:56;34.10;;;12.77;;
69565;SDS011;56777;55.930;37.524;2024-01-30T06:29:21;32.00;;;11.05;;
69565;SDS011;56777;55.930;37.524;2024-01-30T06:31:49;33.13;;;11.48;;
69565;SDS011;56777;55.930;37.524;2024-01-30T06:34:15;32.10;;;11.50;;
69565;SDS011;56777;55.930;37.524;2024-01-30T06:36:40;29.92;;;11.45;;
69565;SDS011;56777;55.930;37.524;2024-01-30T06:39:06;34.10;;;11.20;;
69565;SDS011;56777;55.930;37.524;2024-01-30T06:41:32;31.50;;;11.10;;
69565;SDS011;56777;55.930;37.524;2024-01-30T06:43:58;33.42;;;11.48;;
69565;SDS011;56777;55.930;37.524;2024-01-30T06:46:24;32.00;;;11.32;;
69565;SDS011;56777;55.930;37.524;2024-01-30T06:48:49;31.80;;;12.77;;
69565;SDS011;56777;55.930;37.524;2024-01-30T06:51:15;28.75;;;11.32;;
69565;SDS011;56777;55.930;37.524;2024-01-30T06:53:41;32.83;;;11.32;;
69565;SDS011;56777;55.930;37.524;2024-01-30T06:56:06;31.52;;;11.40;;
69565;SDS011;56777;55.930;37.524;2024-01-30T06:58:32;34.15;;;11.75;;
69565;SDS011;56777;55.930;37.524;2024-01-30T07:00:58;42.72;;;15.50;;
69565;SDS011;56777;55.930;37.524;2024-01-30T07:03:23;36.15;;;13.85;;
69565;SDS011;56777;55.930;37.524;2024-01-30T07:05:49;37.90;;;14.70;;
69565;SDS011;56777;55.930;37.524;2024-01-30T07:08:15;37.25;;;12.85;;
69565;SDS011;56777;55.930;37.524;2024-01-30T07:10:42;32.40;;;13.80;;
69565;SDS011;56777;55.930;37.524;2024-01-30T07:13:09;33.95;;;12.80;;
69565;SDS011;56777;55.930;37.524;2024-01-30T07:15:37;32.50;;;12.57;;
69565;SDS011;56777;55.930;37.524;2024-01-30T07:18:03;34.53;;;12.88;;
69565;SDS011;56777;55.930;37.524;2024-01-30T07:20:30;31.48;;;12.52;;
69565;SDS011;56777;55.930;37.524;2024-01-30T07:22:57;29.80;;;11.63;;
69565;SDS011;56777;55.930;37.524;2024-01-30T07:25:24;30.83;;;12.45;;
69565;SDS011;56777;55.930;37.524;2024-01-30T07:27:55;29.48;;;10.57;;
69565;SDS011;56777;55.930;37.524;2024-01-30T07:30:23;27.67;;;10.35;;
69565;SDS011;56777;55.930;37.524;2024-01-30T07:32:49;34.10;;;11.15;;
69565;SDS011;56777;55.930;37.524;2024-01-30T07:35:14;33.75;;;11.25;;
69565;SDS011;56777;55.930;37.524;2024-01-30T07:37:40;31.92;;;10.07;;
69565;SDS011;56777;55.930;37.524;2024-01-30T07:40:06;33.72;;;11.43;;
69565;SDS011;56777;55.930;37.524;2024-01-30T07:42:32;27.25;;;10.85;;
69565;SDS011;56777;55.930;37.524;2024-01-30T07:44:58;34.80;;;10.75;;
69565;SDS011;56777;55.930;37.524;2024-01-30T07:47:24;26.67;;;9.25;;
69565;SDS011;56777;55.930;37.524;2024-01-30T07:49:49;20.58;;;8.13;;
69565;SDS011;56777;55.930;37.524;2024-01-30T07:52:16;16.38;;;7.00;;
69565;SDS011;56777;55.930;37.524;2024-01-30T07:54:41;18.42;;;7.60;;
69565;SDS011;56777;55.930;37.524;2024-01-30T07:57:07;20.67;;;8.30;;
69565;SDS011;56777;55.930;37.524;2024-01-30T07:59:33;22.25;;;8.68;;
69565;SDS011;56777;55.930;37.524;2024-01-30T08:01:58;23.77;;;9.25;;
69565;SDS011;56777;55.930;37.524;2024-01-30T08:04:24;24.08;;;8.75;;
69565;SDS011;56777;55.930;37.524;2024-01-30T08:06:49;23.52;;;9.82;;
69565;SDS011;56777;55.930;37.524;2024-01-30T08:09:15;29.38;;;11.43;;
69565;SDS011;56777;55.930;37.524;2024-01-30T08:11:40;26.45;;;10.07;;
69565;SDS011;56777;55.930;37.524;2024-01-30T08:14:06;29.40;;;10.70;;
69565;SDS011;56777;55.930;37.524;2024-01-30T08:16:31;21.40;;;8.43;;
69565;SDS011;56777;55.930;37.524;2024-01-30T08:18:57;23.27;;;8.00;;
69565;SDS011;56777;55.930;37.524;2024-01-30T08:21:23;18.65;;;8.40;;
69565;SDS011;56777;55.930;37.524;2024-01-30T08:23:49;22.77;;;8.45;;
69565;SDS011;56777;55.930;37.524;2024-01-30T08:26:14;20.42;;;8.38;;
69565;SDS011;56777;55.930;37.524;2024-01-30T08:28:40;21.00;;;8.80;;
69565;SDS011;56777;55.930;37.524;2024-01-30T08:31:05;20.00;;;9.00;;
69565;SDS011;56777;55.930;37.524;2024-01-30T08:33:31;16.10;;;7.32;;
69565;SDS011;56777;55.930;37.524;2024-01-30T08:35:56;19.05;;;7.72;;
69565;SDS011;56777;55.930;37.524;2024-01-30T08:38:22;18.27;;;8.50;;
69565;SDS011;56777;55.930;37.524;2024-01-30T08:40:48;18.45;;;8.27;;
69565;SDS011;56777;55.930;37.524;2024-01-30T08:43:13;17.33;;;7.32;;
69565;SDS011;56777;55.930;37.524;2024-01-30T08:45:40;13.65;;;6.15;;
69565;SDS011;56777;55.930;37.524;2024-01-30T08:48:06;13.85;;;6.35;;
69565;SDS011;56777;55.930;37.524;2024-01-30T08:50:32;15.70;;;6.95;;
69565;SDS011;56777;55.930;37.524;2024-01-30T08:52:58;13.73;;;6.32;;
69565;SDS011;56777;55.930;37.524;2024-01-30T08:55:24;13.65;;;6.60;;
69565;SDS011;56777;55.930;37.524;2024-01-30T08:57:49;12.70;;;5.70;;
69565;SDS011;56777;55.930;37.524;2024-01-30T09:00:15;12.10;;;5.60;;
69565;SDS011;56777;55.930;37.524;2024-01-30T09:02:41;13.85;;;6.78;;
69565;SDS011;56777;55.930;37.524;2024-01-30T09:05:07;12.82;;;6.60;;
69565;SDS011;56777;55.930;37.524;2024-01-30T09:07:32;11.90;;;5.90;;
69565;SDS011;56777;55.930;37.524;2024-01-30T09:09:58;9.10;;;5.05;;
69565;SDS011;56777;55.930;37.524;2024-01-30T09:12:23;8.40;;;4.80;;
69565;SDS011;56777;55.930;37.524;2024-01-30T09:14:49;9.82;;;5.78;;
69565;SDS011;56777;55.930;37.524;2024-01-30T09:17:15;10.68;;;4.97;;
69565;SDS011;56777;55.930;37.524;2024-01-30T09:19:40;9.70;;;5.35;;
69565;SDS011;56777;55.930;37.524;2024-01-30T09:22:06;9.52;;;5.00;;
69565;SDS011;56777;55.930;37.524;2024-01-30T09:24:32;11.35;;;5.10;;
69565;SDS011;56777;55.930;37.524;2024-01-30T09:26:57;9.25;;;4.88;;
69565;SDS011;56777;55.930;37.524;2024-01-30T09:29:23;9.07;;;5.15;;
69565;SDS011;56777;55.930;37.524;2024-01-30T09:31:48;7.40;;;4.18;;
69565;SDS011;56777;55.930;37.524;2024-01-30T09:34:14;8.85;;;4.68;;
69565;SDS011;56777;55.930;37.524;2024-01-30T09:36:39;9.85;;;4.63;;
69565;SDS011;56777;55.930;37.524;2024-01-30T09:39:05;9.00;;;5.28;;
69565;SDS011;56777;55.930;37.524;2024-01-30T09:41:32;10.73;;;4.97;;
69565;SDS011;56777;55.930;37.524;2024-01-30T09:43:59;9.70;;;5.38;;
69565;SDS011;56777;55.930;37.524;2024-01-30T09:46:27;10.55;;;5.07;;
69565;SDS011;56777;55.930;37.524;2024-01-30T09:48:53;9.63;;;5.50;;
69565;SDS011;56777;55.930;37.524;2024-01-30T09:51:20;10.05;;;5.43;;
69565;SDS011;56777;55.930;37.524;2024-01-30T09:53:47;11.15;;;5.60;;
69565;SDS011;56777;55.930;37.524;2024-01-30T09:56:13;12.18;;;5.15;;
69565;SDS011;56777;55.930;37.524;2024-01-30T09:58:39;9.68;;;5.18;;
69565;SDS011;56777;55.930;37.524;2024-01-30T10:01:05;9.98;;;5.07;;
69565;SDS011;56777;55.930;37.524;2024-01-30T10:03:31;9.85;;;4.93;;
69565;SDS011;56777;55.930;37.524;2024-01-30T10:05:56;9.82;;;5.32;;
69565;SDS011;56777;55.930;37.524;2024-01-30T10:08:22;8.55;;;4.63;;
69565;SDS011;56777;55.930;37.524;2024-01-30T10:10:48;10.98;;;5.50;;
69565;SDS011;56777;55.930;37.524;2024-01-30T10:13:15;13.25;;;5.93;;
69565;SDS011;56777;55.930;37.524;2024-01-30T10:15:41;10.90;;;5.00;;
69565;SDS011;56777;55.930;37.524;2024-01-30T10:18:07;12.02;;;5.97;;
69565;SDS011;56777;55.930;37.524;2024-01-30T10:20:35;11.68;;;6.15;;
69565;SDS011;56777;55.930;37.524;2024-01-30T10:23:01;9.13;;;4.53;;
69565;SDS011;56777;55.930;37.524;2024-01-30T10:25:27;9.45;;;5.20;;
69565;SDS011;56777;55.930;37.524;2024-01-30T10:27:53;11.50;;;5.90;;
69565;SDS011;56777;55.930;37.524;2024-01-30T10:32:48;9.98;;;5.30;;
69565;SDS011;56777;55.930;37.524;2024-01-30T10:35:14;8.52;;;4.60;;
69565;SDS011;56777;55.930;37.524;2024-01-30T10:37:42;9.70;;;4.78;;
69565;SDS011;56777;55.930;37.524;2024-01-30T10:40:09;9.13;;;4.97;;
69565;SDS011;56777;55.930;37.524;2024-01-30T10:42:39;11.63;;;6.03;;
69565;SDS011;56777;55.930;37.524;2024-01-30T10:47:49;10.43;;;5.18;;
69565;SDS011;56777;55.930;37.524;2024-01-30T10:50:15;12.35;;;5.93;;
69565;SDS011;56777;55.930;37.524;2024-01-30T10:52:42;12.13;;;6.07;;
69565;SDS011;56777;55.930;37.524;2024-01-30T10:55:08;13.73;;;6.60;;
69565;SDS011;56777;55.930;37.524;2024-01-30T10:57:35;9.45;;;5.03;;
69565;SDS011;56777;55.930;37.524;2024-01-30T11:00:08;14.93;;;6.95;;
69565;SDS011;56777;55.930;37.524;2024-01-30T11:02:36;13.55;;;7.18;;
69565;SDS011;56777;55.930;37.524;2024-01-30T11:05:04;18.38;;;8.30;;
69565;SDS011;56777;55.930;37.524;2024-01-30T11:07:30;15.82;;;7.20;;
69565;SDS011;56777;55.930;37.524;2024-01-30T11:10:00;13.35;;;6.95;;
69565;SDS011;56777;55.930;37.524;2024-01-30T11:12:28;14.70;;;6.70;;
69565;SDS011;56777;55.930;37.524;2024-01-30T11:20:22;18.13;;;7.47;;
69565;SDS011;56777;55.930;37.524;2024-01-30T11:22:52;18.95;;;7.95;;
69565;SDS011;56777;55.930;37.524;2024-01-30T11:25:19;20.20;;;9.07;;
69565;SDS011;56777;55.930;37.524;2024-01-30T11:27:46;18.50;;;8.20;;
69565;SDS011;56777;55.930;37.524;2024-01-30T11:30:24;21.55;;;9.32;;
69565;SDS011;56777;55.930;37.524;2024-01-30T11:37:57;20.27;;;8.60;;
69565;SDS011;56777;55.930;37.524;2024-01-30T11:40:25;22.05;;;9.88;;
69565;SDS011;56777;55.930;37.524;2024-01-30T11:42:57;22.50;;;9.00;;
69565;SDS011;56777;55.930;37.524;2024-01-30T11:45:24;24.67;;;10.57;;
69565;SDS011;56777;55.930;37.524;2024-01-30T11:47:51;25.13;;;9.85;;
69565;SDS011;56777;55.930;37.524;2024-01-30T11:50:17;24.10;;;10.52;;
69565;SDS011;56777;55.930;37.524;2024-01-30T11:52:43;28.30;;;10.25;;
69565;SDS011;56777;55.930;37.524;2024-01-30T11:55:09;25.02;;;10.50;;
69565;SDS011;56777;55.930;37.524;2024-01-30T11:57:35;27.45;;;10.63;;
69565;SDS011;56777;55.930;37.524;2024-01-30T12:00:02;24.95;;;11.50;;
69565;SDS011;56777;55.930;37.524;2024-01-30T12:02:33;25.00;;;10.98;;
69565;SDS011;56777;55.930;37.524;2024-01-30T12:05:02;27.17;;;10.27;;
69565;SDS011;56777;55.930;37.524;2024-01-30T12:07:29;29.98;;;11.43;;
69565;SDS011;56777;55.930;37.524;2024-01-30T12:09:55;25.98;;;11.05;;
69565;SDS011;56777;55.930;37.524;2024-01-30T12:12:24;26.50;;;10.75;;
69565;SDS011;56777;55.930;37.524;2024-01-30T12:14:51;22.23;;;10.07;;
69565;SDS011;56777;55.930;37.524;2024-01-30T12:17:26;27.08;;;11.13;;
69565;SDS011;56777;55.930;37.524;2024-01-30T12:20:03;25.83;;;9.55;;
69565;SDS011;56777;55.930;37.524;2024-01-30T12:22:29;28.50;;;10.82;;
69565;SDS011;56777;55.930;37.524;2024-01-30T12:24:55;26.25;;;10.18;;
69565;SDS011;56777;55.930;37.524;2024-01-30T12:27:20;25.27;;;10.40;;
69565;SDS011;56777;55.930;37.524;2024-01-30T12:29:46;23.17;;;9.93;;
69565;SDS011;56777;55.930;37.524;2024-01-30T12:32:15;26.40;;;9.98;;
69565;SDS011;56777;55.930;37.524;2024-01-30T12:37:07;25.60;;;9.63;;
69565;SDS011;56777;55.930;37.524;2024-01-30T12:39:34;23.23;;;9.80;;
69565;SDS011;56777;55.930;37.524;2024-01-30T12:42:00;22.83;;;10.18;;
69565;SDS011;56777;55.930;37.524;2024-01-30T12:44:26;23.83;;;9.73;;
69565;SDS011;56777;55.930;37.524;2024-01-30T12:46:51;20.67;;;8.52;;
69565;SDS011;56777;55.930;37.524;2024-01-30T12:49:17;21.75;;;9.32;;
69565;SDS011;56777;55.930;37.524;2024-01-30T12:51:43;18.25;;;8.82;;
69565;SDS011;56777;55.930;37.524;2024-01-30T12:54:08;23.60;;;9.93;;
69565;SDS011;56777;55.930;37.524;2024-01-30T12:56:34;21.33;;;8.52;;
69565;SDS011;56777;55.930;37.524;2024-01-30T12:58:59;22.20;;;9.90;;
69565;SDS011;56777;55.930;37.524;2024-01-30T13:01:25;21.00;;;9.65;;
69565;SDS011;56777;55.930;37.524;2024-01-30T13:03:51;22.33;;;9.75;;
69565;SDS011;56777;55.930;37.524;2024-01-30T13:06:17;19.42;;;7.50;;
69565;SDS011;56777;55.930;37.524;2024-01-30T13:08:43;18.92;;;7.78;;
69565;SDS011;56777;55.930;37.524;2024-01-30T13:11:08;20.60;;;9.13;;
69565;SDS011;56777;55.930;37.524;2024-01-30T13:13:34;22.38;;;9.57;;
69565;SDS011;56777;55.930;37.524;2024-01-30T13:16:00;23.35;;;9.13;;
69565;SDS011;56777;55.930;37.524;2024-01-30T13:18:26;25.70;;;9.88;;
69565;SDS011;56777;55.930;37.524;2024-01-30T13:20:51;23.75;;;9.60;;
69565;SDS011;56777;55.930;37.524;2024-01-30T13:23:17;21.63;;;8.85;;
69565;SDS011;56777;55.930;37.524;2024-01-30T13:25:43;31.80;;;11.45;;
69565;SDS011;56777;55.930;37.524;2024-01-30T13:28:08;27.23;;;11.07;;
69565;SDS011;56777;55.930;37.524;2024-01-30T13:30:34;27.60;;;10.65;;
69565;SDS011;56777;55.930;37.524;2024-01-30T13:32:59;27.90;;;10.57;;
69565;SDS011;56777;55.930;37.524;2024-01-30T13:35:25;33.03;;;12.20;;
69565;SDS011;56777;55.930;37.524;2024-01-30T13:37:51;31.10;;;12.93;;
69565;SDS011;56777;55.930;37.524;2024-01-30T13:40:16;30.15;;;11.45;;
69565;SDS011;56777;55.930;37.524;2024-01-30T13:42:42;32.25;;;11.52;;
69565;SDS011;56777;55.930;37.524;2024-01-30T13:45:07;32.38;;;12.95;;
69565;SDS011;56777;55.930;37.524;2024-01-30T13:47:34;31.35;;;12.30;;
69565;SDS011;56777;55.930;37.524;2024-01-30T13:50:00;32.83;;;12.27;;
69565;SDS011;56777;55.930;37.524;2024-01-30T13:52:25;30.45;;;10.23;;
69565;SDS011;56777;55.930;37.524;2024-01-30T13:54:52;37.10;;;13.25;;
69565;SDS011;56777;55.930;37.524;2024-01-30T13:57:17;33.38;;;12.05;;
69565;SDS011;56777;55.930;37.524;2024-01-30T13:59:43;39.70;;;14.50;;
69565;SDS011;56777;55.930;37.524;2024-01-30T14:02:08;35.30;;;12.73;;
69565;SDS011;56777;55.930;37.524;2024-01-30T14:04:35;39.78;;;13.55;;
69565;SDS011;56777;55.930;37.524;2024-01-30T14:07:02;38.47;;;13.68;;
69565;SDS011;56777;55.930;37.524;2024-01-30T14:09:28;41.42;;;13.85;;
69565;SDS011;56777;55.930;37.524;2024-01-30T14:11:54;41.67;;;15.40;;
69565;SDS011;56777;55.930;37.524;2024-01-30T14:14:20;40.47;;;14.60;;
69565;SDS011;56777;55.930;37.524;2024-01-30T14:16:45;42.90;;;14.63;;
69565;SDS011;56777;55.930;37.524;2024-01-30T14:19:11;43.95;;;14.77;;
69565;SDS011;56777;55.930;37.524;2024-01-30T14:21:36;43.10;;;14.20;;
69565;SDS011;56777;55.930;37.524;2024-01-30T14:24:02;48.33;;;15.07;;
69565;SDS011;56777;55.930;37.524;2024-01-30T14:26:28;42.25;;;14.45;;
69565;SDS011;56777;55.930;37.524;2024-01-30T14:28:56;43.63;;;15.50;;
69565;SDS011;56777;55.930;37.524;2024-01-30T14:31:21;46.40;;;15.52;;